sensor_id;sensor_type;location;lat;lon;timestamp;pressure;altitude;pressure_sealevel;temperature;humidity
6413;BME280;3239;48.714;9.472;2022-07-05T00:01:52;98683.16;;;17.68;100.00
6413;BME280;3239;48.714;9.472;2022-07-05T00:04:18;98684.69;;;17.54;100.00
6413;BME280;3239;48.714;9.472;2022-07-05T00:06:44;98692.38;;;17.71;100.00
6413;BME280;3239;48.714;9.472;2022-07-05T00:09:29;98684.69;;;17.54;100.00
6413;BME280;3239;48.714;9.472;2022-07-05T00:11:55;98688.59;;;17.36;100.00
6413;BME280;3239;48.714;9.472;2022-07-05T00:14:21;98703.19;;;17.44;100.00
6413;BME280;3239;48.714;9.472;2022-07-05T00:16:47;98698.38;;;17.45;100.00
6413;BME280;3239;48.714;9.472;2022-07-05T00:19:12;98710.00;;;17.43;100.00
6413;BME280;3239;48.714;9.472;2022-07-05T00:21:38;98713.16;;;17.40;100.00
6413;BME280;3239;48.714;9.472;2022-07-05T00:24:04;98714.63;;;17.33;100.00
6413;BME280;3239;48.714;9.472;2022-07-05T00:26:30;98722.59;;;17.29;100.00
6413;BME280;3239;48.714;9.472;2022-07-05T00:28:56;98725.75;;;17.18;100.00
6413;BME280;3239;48.714;9.472;2022-07-05T00:31:21;98737.38;;;17.17;100.00
6413;BME280;3239;48.714;9.472;2022-07-05T00:33:47;98745.13;;;17.18;100.00
6413;BME280;3239;48.714;9.472;2022-07-05T00:36:13;98746.22;;;17.08;100.00
6413;BME280;3239;48.714;9.472;2022-07-05T00:38:39;98757.69;;;17.04;100.00
6413;BME280;3239;48.714;9.472;2022-07-05T00:41:05;98761.91;;;16.98;100.00
6413;BME280;3239;48.714;9.472;2022-07-05T00:43:30;98762.13;;;17.00;100.00
6413;BME280;3239;48.714;9.472;2022-07-05T00:45:56;98758.75;;;16.94;100.00
6413;BME280;3239;48.714;9.472;2022-07-05T00:48:22;98764.31;;;16.86;100.00
6413;BME280;3239;48.714;9.472;2022-07-05T00:50:50;98764.88;;;16.92;100.00
6413;BME280;3239;48.714;9.472;2022-07-05T00:53:16;98765.41;;;16.91;100.00
6413;BME280;3239;48.714;9.472;2022-07-05T00:55:44;98763.94;;;16.82;100.00
6413;BME280;3239;48.714;9.472;2022-07-05T00:58:11;98772.41;;;16.77;100.00
6413;BME280;3239;48.714;9.472;2022-07-05T01:00:37;98773.66;;;16.61;100.00
6413;BME280;3239;48.714;9.472;2022-07-05T01:03:03;98776.44;;;16.61;100.00
6413;BME280;3239;48.714;9.472;2022-07-05T01:05:31;98784.22;;;16.70;100.00
6413;BME280;3239;48.714;9.472;2022-07-05T01:07:59;98784.75;;;16.68;100.00
6413;BME280;3239;48.714;9.472;2022-07-05T01:10:27;98776.97;;;16.59;100.00
6413;BME280;3239;48.714;9.472;2022-07-05T01:12:53;98779.94;;;16.54;100.00
6413;BME280;3239;48.714;9.472;2022-07-05T01:15:21;98778.25;;;16.51;100.00
6413;BME280;3239;48.714;9.472;2022-07-05T01:17:49;98786.56;;;16.51;100.00
6413;BME280;3239;48.714;9.472;2022-07-05T01:20:15;98795.97;;;16.48;100.00
6413;BME280;3239;48.714;9.472;2022-07-05T01:22:55;98807.41;;;16.44;100.00
6413;BME280;3239;48.714;9.472;2022-07-05T01:25:25;98800.94;;;16.42;100.00
6413;BME280;3239;48.714;9.472;2022-07-05T01:27:52;98809.16;;;16.34;100.00
6413;BME280;3239;48.714;9.472;2022-07-05T01:30:19;98812.47;;;16.33;100.00
6413;BME280;3239;48.714;9.472;2022-07-05T01:32:45;98816.16;;;16.28;100.00
6413;BME280;3239;48.714;9.472;2022-07-05T01:35:12;98819.63;;;16.21;100.00
6413;BME280;3239;48.714;9.472;2022-07-05T01:37:39;98822.03;;;16.24;100.00
6413;BME280;3239;48.714;9.472;2022-07-05T01:40:07;98818.53;;;16.24;100.00
6413;BME280;3239;48.714;9.472;2022-07-05T01:42:33;98819.03;;;16.15;100.00
6413;BME280;3239;48.714;9.472;2022-07-05T01:44:59;98815.31;;;16.12;100.00
6413;BME280;3239;48.714;9.472;2022-07-05T01:47:24;98821.22;;;16.09;100.00
6413;BME280;3239;48.714;9.472;2022-07-05T01:49:54;98822.19;;;16.19;100.00
6413;BME280;3239;48.714;9.472;2022-07-05T01:52:24;98818.47;;;16.16;100.00
6413;BME280;3239;48.714;9.472;2022-07-05T01:54:53;98823.78;;;16.07;100.00
6413;BME280;3239;48.714;9.472;2022-07-05T01:57:19;98829.34;;;15.79;100.00
6413;BME280;3239;48.714;9.472;2022-07-05T01:59:45;98838.41;;;15.87;100.00
6413;BME280;3239;48.714;9.472;2022-07-05T02:02:10;98844.16;;;15.89;100.00
6413;BME280;3239;48.714;9.472;2022-07-05T02:04:37;98848.59;;;15.92;100.00
6413;BME280;3239;48.714;9.472;2022-07-05T02:07:08;98848.75;;;15.86;100.00
6413;BME280;3239;48.714;9.472;2022-07-05T02:09:34;98853.91;;;15.90;100.00
6413;BME280;3239;48.714;9.472;2022-07-05T02:12:03;98856.72;;;15.97;100.00
6413;BME280;3239;48.714;9.472;2022-07-05T02:14:29;98855.59;;;15.93;100.00
6413;BME280;3239;48.714;9.472;2022-07-05T02:16:55;98859.09;;;15.93;100.00
6413;BME280;3239;48.714;9.472;2022-07-05T02:19:21;98868.13;;;15.94;100.00
6413;BME280;3239;48.714;9.472;2022-07-05T02:21:47;98860.03;;;15.96;100.00
6413;BME280;3239;48.714;9.472;2022-07-05T02:24:13;98858.03;;;16.04;100.00
6413;BME280;3239;48.714;9.472;2022-07-05T02:26:39;98849.53;;;15.94;100.00
6413;BME280;3239;48.714;9.472;2022-07-05T02:29:05;98843.00;;;15.84;100.00
6413;BME280;3239;48.714;9.472;2022-07-05T02:31:31;98842.59;;;15.80;100.00
6413;BME280;3239;48.714;9.472;2022-07-05T02:33:57;98841.00;;;15.85;100.00
6413;BME280;3239;48.714;9.472;2022-07-05T02:36:24;98840.00;;;15.75;100.00
6413;BME280;3239;48.714;9.472;2022-07-05T02:38:50;98855.41;;;15.63;100.00
6413;BME280;3239;48.714;9.472;2022-07-05T02:41:16;98853.53;;;15.58;100.00
6413;BME280;3239;48.714;9.472;2022-07-05T02:43:41;98857.59;;;15.64;100.00
6413;BME280;3239;48.714;9.472;2022-07-05T02:46:08;98867.59;;;15.67;100.00
6413;BME280;3239;48.714;9.472;2022-07-05T02:48:35;98859.41;;;15.54;100.00
6413;BME280;3239;48.714;9.472;2022-07-05T02:51:03;98863.91;;;15.44;100.00
6413;BME280;3239;48.714;9.472;2022-07-05T02:53:29;98873.25;;;15.41;100.00
6413;BME280;3239;48.714;9.472;2022-07-05T02:55:55;98872.03;;;15.50;100.00
6413;BME280;3239;48.714;9.472;2022-07-05T02:58:21;98870.91;;;15.45;100.00
6413;BME280;3239;48.714;9.472;2022-07-05T03:00:48;98876.78;;;15.42;100.00
6413;BME280;3239;48.714;9.472;2022-07-05T03:03:15;98880.19;;;15.35;100.00
6413;BME280;3239;48.714;9.472;2022-07-05T03:05:41;98884.16;;;15.26;100.00
6413;BME280;3239;48.714;9.472;2022-07-05T03:08:07;98886.38;;;15.28;100.00
6413;BME280;3239;48.714;9.472;2022-07-05T03:10:34;98896.56;;;15.33;100.00
6413;BME280;3239;48.714;9.472;2022-07-05T03:13:00;98887.94;;;15.36;100.00
6413;BME280;3239;48.714;9.472;2022-07-05T03:15:26;98893.81;;;15.33;100.00
6413;BME280;3239;48.714;9.472;2022-07-05T03:17:52;98891.06;;;15.33;100.00
6413;BME280;3239;48.714;9.472;2022-07-05T03:20:18;98898.47;;;15.25;100.00
6413;BME280;3239;48.714;9.472;2022-07-05T03:22:44;98903.41;;;15.19;100.00
6413;BME280;3239;48.714;9.472;2022-07-05T03:25:09;98907.78;;;15.14;100.00
6413;BME280;3239;48.714;9.472;2022-07-05T03:27:35;98928.13;;;15.24;100.00
6413;BME280;3239;48.714;9.472;2022-07-05T03:30:03;98921.19;;;15.31;100.00
6413;BME280;3239;48.714;9.472;2022-07-05T03:32:29;98913.38;;;15.22;100.00
6413;BME280;3239;48.714;9.472;2022-07-05T03:34:55;98917.41;;;15.21;100.00
6413;BME280;3239;48.714;9.472;2022-07-05T03:37:21;98918.91;;;15.22;100.00
6413;BME280;3239;48.714;9.472;2022-07-05T03:39:47;98915.66;;;15.10;100.00
6413;BME280;3239;48.714;9.472;2022-07-05T03:42:13;98926.34;;;15.14;100.00
6413;BME280;3239;48.714;9.472;2022-07-05T03:44:39;98927.63;;;15.13;100.00
6413;BME280;3239;48.714;9.472;2022-07-05T03:47:04;98929.59;;;15.05;100.00
6413;BME280;3239;48.714;9.472;2022-07-05T03:49:30;98931.41;;;15.02;100.00
6413;BME280;3239;48.714;9.472;2022-07-05T03:51:56;98947.09;;;15.07;100.00
6413;BME280;3239;48.714;9.472;2022-07-05T03:54:22;98945.06;;;15.08;100.00
6413;BME280;3239;48.714;9.472;2022-07-05T03:56:47;98950.81;;;15.10;100.00
6413;BME280;3239;48.714;9.472;2022-07-05T03:59:13;98954.72;;;15.01;100.00
6413;BME280;3239;48.714;9.472;2022-07-05T04:01:39;98950.03;;;15.09;100.00
6413;BME280;3239;48.714;9.472;2022-07-05T04:04:05;98962.03;;;15.12;100.00
6413;BME280;3239;48.714;9.472;2022-07-05T04:06:30;98959.13;;;15.17;100.00
6413;BME280;3239;48.714;9.472;2022-07-05T04:08:56;98952.69;;;15.15;100.00
6413;BME280;3239;48.714;9.472;2022-07-05T04:11:22;98951.84;;;15.07;100.00
6413;BME280;3239;48.714;9.472;2022-07-05T04:13:48;98952.47;;;15.13;100.00
6413;BME280;3239;48.714;9.472;2022-07-05T04:16:14;98954.91;;;15.16;100.00
6413;BME280;3239;48.714;9.472;2022-07-05T04:18:40;98962.13;;;15.19;100.00
6413;BME280;3239;48.714;9.472;2022-07-05T04:21:06;98961.38;;;15.19;100.00
6413;BME280;3239;48.714;9.472;2022-07-05T04:23:33;98953.09;;;15.19;100.00
6413;BME280;3239;48.714;9.472;2022-07-05T04:26:01;98962.44;;;15.16;100.00
6413;BME280;3239;48.714;9.472;2022-07-05T04:28:27;98975.38;;;15.21;100.00
6413;BME280;3239;48.714;9.472;2022-07-05T04:30:56;98978.16;;;15.21;100.00
6413;BME280;3239;48.714;9.472;2022-07-05T04:33:22;98969.94;;;15.28;100.00
6413;BME280;3239;48.714;9.472;2022-07-05T04:35:48;98970.47;;;15.27;100.00
6413;BME280;3239;48.714;9.472;2022-07-05T04:38:14;98977.28;;;15.26;100.00
6413;BME280;3239;48.714;9.472;2022-07-05T04:40:40;98973.97;;;15.27;100.00
6413;BME280;3239;48.714;9.472;2022-07-05T04:43:07;98974.63;;;15.33;100.00
6413;BME280;3239;48.714;9.472;2022-07-05T04:45:33;98976.31;;;15.36;100.00
6413;BME280;3239;48.714;9.472;2022-07-05T04:47:59;98981.72;;;15.42;100.00
6413;BME280;3239;48.714;9.472;2022-07-05T04:50:25;98975.97;;;15.40;100.00
6413;BME280;3239;48.714;9.472;2022-07-05T04:52:50;98980.44;;;15.43;100.00
6413;BME280;3239;48.714;9.472;2022-07-05T04:55:16;98978.63;;;15.45;100.00
6413;BME280;3239;48.714;9.472;2022-07-05T04:57:42;98974.22;;;15.50;100.00
6413;BME280;3239;48.714;9.472;2022-07-05T05:00:12;98972.81;;;15.56;100.00
6413;BME280;3239;48.714;9.472;2022-07-05T05:02:38;98971.28;;;15.48;100.00
6413;BME280;3239;48.714;9.472;2022-07-05T05:05:04;98969.81;;;15.47;100.00
6413;BME280;3239;48.714;9.472;2022-07-05T05:07:31;98977.81;;;15.58;100.00
6413;BME280;3239;48.714;9.472;2022-07-05T05:09:56;98986.03;;;15.71;100.00
6413;BME280;3239;48.714;9.472;2022-07-05T05:12:22;98978.50;;;15.71;100.00
6413;BME280;3239;48.714;9.472;2022-07-05T05:14:49;98977.63;;;15.76;100.00
6413;BME280;3239;48.714;9.472;2022-07-05T05:17:15;98978.63;;;15.86;100.00
6413;BME280;3239;48.714;9.472;2022-07-05T05:19:41;98983.28;;;15.91;100.00
6413;BME280;3239;48.714;9.472;2022-07-05T05:22:07;98981.78;;;15.90;100.00
6413;BME280;3239;48.714;9.472;2022-07-05T05:24:33;99003.69;;;15.88;100.00
6413;BME280;3239;48.714;9.472;2022-07-05T05:27:01;99001.78;;;16.04;100.00
6413;BME280;3239;48.714;9.472;2022-07-05T05:29:27;98993.72;;;16.06;100.00
6413;BME280;3239;48.714;9.472;2022-07-05T05:31:53;99002.53;;;16.04;100.00
6413;BME280;3239;48.714;9.472;2022-07-05T05:34:19;99028.53;;;16.09;100.00
6413;BME280;3239;48.714;9.472;2022-07-05T05:36:45;99037.13;;;16.18;100.00
6413;BME280;3239;48.714;9.472;2022-07-05T05:39:10;99044.13;;;16.19;100.00
6413;BME280;3239;48.714;9.472;2022-07-05T05:41:36;99046.94;;;16.27;100.00
6413;BME280;3239;48.714;9.472;2022-07-05T05:44:02;99049.56;;;16.32;100.00
6413;BME280;3239;48.714;9.472;2022-07-05T05:46:28;99053.47;;;16.57;100.00
6413;BME280;3239;48.714;9.472;2022-07-05T05:48:54;99052.22;;;16.66;100.00
6413;BME280;3239;48.714;9.472;2022-07-05T05:51:20;99039.50;;;16.70;100.00
6413;BME280;3239;48.714;9.472;2022-07-05T05:53:46;99032.81;;;16.94;100.00
6413;BME280;3239;48.714;9.472;2022-07-05T05:56:13;99021.66;;;17.14;100.00
6413;BME280;3239;48.714;9.472;2022-07-05T05:58:38;99002.66;;;17.26;100.00
6413;BME280;3239;48.714;9.472;2022-07-05T06:01:04;98986.28;;;17.35;100.00
6413;BME280;3239;48.714;9.472;2022-07-05T06:03:30;98975.78;;;17.41;100.00
6413;BME280;3239;48.714;9.472;2022-07-05T06:05:56;98969.69;;;17.43;100.00
6413;BME280;3239;48.714;9.472;2022-07-05T06:08:22;98968.81;;;17.93;100.00
6413;BME280;3239;48.714;9.472;2022-07-05T06:10:49;98940.13;;;18.43;100.00
6413;BME280;3239;48.714;9.472;2022-07-05T06:13:15;98905.44;;;18.66;100.00
6413;BME280;3239;48.714;9.472;2022-07-05T06:15:42;98871.88;;;18.79;100.00
6413;BME280;3239;48.714;9.472;2022-07-05T06:18:10;98847.22;;;19.15;100.00
6413;BME280;3239;48.714;9.472;2022-07-05T06:20:38;98816.09;;;19.17;100.00
6413;BME280;3239;48.714;9.472;2022-07-05T06:23:05;98797.00;;;19.62;100.00
6413;BME280;3239;48.714;9.472;2022-07-05T06:25:32;98774.28;;;19.90;100.00
6413;BME280;3239;48.714;9.472;2022-07-05T06:28:05;98748.34;;;20.75;100.00
6413;BME280;3239;48.714;9.472;2022-07-05T06:30:35;98719.50;;;21.25;100.00
6413;BME280;3239;48.714;9.472;2022-07-05T06:33:01;98700.75;;;21.83;100.00
6413;BME280;3239;48.714;9.472;2022-07-05T06:35:28;98659.50;;;21.91;100.00
6413;BME280;3239;48.714;9.472;2022-07-05T06:38:04;98640.28;;;22.75;100.00
6413;BME280;3239;48.714;9.472;2022-07-05T06:40:36;98653.22;;;21.81;100.00
6413;BME280;3239;48.714;9.472;2022-07-05T06:43:06;98653.03;;;21.79;100.00
6413;BME280;3239;48.714;9.472;2022-07-05T06:45:33;98652.91;;;21.77;100.00
6413;BME280;3239;48.714;9.472;2022-07-05T06:48:10;98682.47;;;21.06;100.00
6413;BME280;3239;48.714;9.472;2022-07-05T06:50:39;98667.28;;;22.51;100.00
6413;BME280;3239;48.714;9.472;2022-07-05T06:53:06;98667.28;;;21.83;100.00
6413;BME280;3239;48.714;9.472;2022-07-05T06:55:32;98663.22;;;22.73;100.00
6413;BME280;3239;48.714;9.472;2022-07-05T06:58:09;98628.31;;;23.79;100.00
6413;BME280;3239;48.714;9.472;2022-07-05T07:00:35;98609.41;;;22.73;100.00
6413;BME280;3239;48.714;9.472;2022-07-05T07:03:01;98633.50;;;22.78;100.00
6413;BME280;3239;48.714;9.472;2022-07-05T07:05:27;98624.50;;;22.79;100.00
6413;BME280;3239;48.714;9.472;2022-07-05T07:07:54;98623.78;;;22.79;100.00
6413;BME280;3239;48.714;9.472;2022-07-05T07:10:38;98622.63;;;21.92;100.00
6413;BME280;3239;48.714;9.472;2022-07-05T07:13:05;98641.00;;;21.57;100.00
6413;BME280;3239;48.714;9.472;2022-07-05T07:15:31;98648.47;;;21.93;100.00
6413;BME280;3239;48.714;9.472;2022-07-05T07:17:59;98631.91;;;22.96;100.00
6413;BME280;3239;48.714;9.472;2022-07-05T07:20:25;98608.38;;;23.20;100.00
6413;BME280;3239;48.714;9.472;2022-07-05T07:22:51;98624.34;;;22.77;100.00
6413;BME280;3239;48.714;9.472;2022-07-05T07:25:18;98625.16;;;21.79;100.00
6413;BME280;3239;48.714;9.472;2022-07-05T07:27:48;98632.78;;;22.37;100.00
6413;BME280;3239;48.714;9.472;2022-07-05T07:30:20;98615.72;;;22.03;100.00
6413;BME280;3239;48.714;9.472;2022-07-05T07:32:46;98614.59;;;22.67;100.00
6413;BME280;3239;48.714;9.472;2022-07-05T07:35:13;98631.97;;;22.86;100.00
6413;BME280;3239;48.714;9.472;2022-07-05T07:37:39;98612.91;;;23.90;100.00
6413;BME280;3239;48.714;9.472;2022-07-05T07:40:07;98620.59;;;23.15;100.00
6413;BME280;3239;48.714;9.472;2022-07-05T07:42:33;98608.84;;;23.37;100.00
6413;BME280;3239;48.714;9.472;2022-07-05T07:44:59;98614.47;;;22.65;100.00
6413;BME280;3239;48.714;9.472;2022-07-05T07:47:32;98618.19;;;23.00;100.00
6413;BME280;3239;48.714;9.472;2022-07-05T07:49:59;98609.84;;;23.21;100.00
6413;BME280;3239;48.714;9.472;2022-07-05T07:52:25;98611.88;;;23.74;100.00
6413;BME280;3239;48.714;9.472;2022-07-05T07:54:51;98596.88;;;23.90;100.00
6413;BME280;3239;48.714;9.472;2022-07-05T07:57:17;98599.22;;;23.73;100.00
6413;BME280;3239;48.714;9.472;2022-07-05T07:59:44;98593.72;;;24.07;100.00
6413;BME280;3239;48.714;9.472;2022-07-05T08:02:10;98594.31;;;23.62;100.00
6413;BME280;3239;48.714;9.472;2022-07-05T08:04:36;98609.31;;;23.34;100.00
6413;BME280;3239;48.714;9.472;2022-07-05T08:07:02;98603.41;;;23.51;100.00
6413;BME280;3239;48.714;9.472;2022-07-05T08:09:31;98600.19;;;24.33;100.00
6413;BME280;3239;48.714;9.472;2022-07-05T08:11:57;98594.09;;;24.48;100.00
6413;BME280;3239;48.714;9.472;2022-07-05T08:14:23;98592.38;;;25.00;100.00
6413;BME280;3239;48.714;9.472;2022-07-05T08:16:49;98585.84;;;24.50;100.00
6413;BME280;3239;48.714;9.472;2022-07-05T08:19:16;98589.59;;;23.97;100.00
6413;BME280;3239;48.714;9.472;2022-07-05T08:22:01;98592.56;;;25.04;100.00
6413;BME280;3239;48.714;9.472;2022-07-05T08:24:29;98587.97;;;24.86;100.00
6413;BME280;3239;48.714;9.472;2022-07-05T08:26:55;98590.78;;;24.97;100.00
6413;BME280;3239;48.714;9.472;2022-07-05T08:29:21;98580.97;;;25.46;100.00
6413;BME280;3239;48.714;9.472;2022-07-05T08:31:50;98577.25;;;25.67;96.60
6413;BME280;3239;48.714;9.472;2022-07-05T08:34:16;98574.03;;;25.11;98.22
6413;BME280;3239;48.714;9.472;2022-07-05T08:36:46;98579.56;;;24.97;100.00
6413;BME280;3239;48.714;9.472;2022-07-05T08:39:13;98579.47;;;24.72;100.00
6413;BME280;3239;48.714;9.472;2022-07-05T08:41:41;98585.22;;;24.74;100.00
6413;BME280;3239;48.714;9.472;2022-07-05T08:44:08;98571.22;;;24.63;100.00
6413;BME280;3239;48.714;9.472;2022-07-05T08:46:38;98574.44;;;25.05;99.23
6413;BME280;3239;48.714;9.472;2022-07-05T08:49:05;98570.41;;;25.45;96.71
6413;BME280;3239;48.714;9.472;2022-07-05T08:51:36;98564.25;;;25.98;93.21
6413;BME280;3239;48.714;9.472;2022-07-05T08:54:02;98562.19;;;25.99;88.36
6413;BME280;3239;48.714;9.472;2022-07-05T08:56:28;98567.75;;;26.37;88.95
6413;BME280;3239;48.714;9.472;2022-07-05T08:58:54;98567.03;;;25.35;88.75
6413;BME280;3239;48.714;9.472;2022-07-05T09:01:21;98558.06;;;25.88;93.39
6413;BME280;3239;48.714;9.472;2022-07-05T09:03:52;98563.22;;;25.92;81.49
6413;BME280;3239;48.714;9.472;2022-07-05T09:06:26;98566.84;;;25.44;86.52
6413;BME280;3239;48.714;9.472;2022-07-05T09:08:55;98568.63;;;25.76;83.27
6413;BME280;3239;48.714;9.472;2022-07-05T09:11:41;98564.50;;;26.29;80.34
6413;BME280;3239;48.714;9.472;2022-07-05T09:14:23;98555.91;;;26.66;77.67
6413;BME280;3239;48.714;9.472;2022-07-05T09:16:50;98560.81;;;28.10;72.30
6413;BME280;3239;48.714;9.472;2022-07-05T09:19:15;98556.34;;;27.74;69.96
6413;BME280;3239;48.714;9.472;2022-07-05T09:21:42;98558.78;;;27.37;73.59
6413;BME280;3239;48.714;9.472;2022-07-05T09:24:12;98566.19;;;28.04;66.94
6413;BME280;3239;48.714;9.472;2022-07-05T09:26:47;98557.88;;;27.77;69.57
6413;BME280;3239;48.714;9.472;2022-07-05T09:29:20;98557.03;;;27.30;69.31
6413;BME280;3239;48.714;9.472;2022-07-05T09:31:48;98559.03;;;27.14;71.67
6413;BME280;3239;48.714;9.472;2022-07-05T09:34:20;98555.94;;;27.66;72.67
6413;BME280;3239;48.714;9.472;2022-07-05T09:36:56;98559.38;;;28.89;65.47
6413;BME280;3239;48.714;9.472;2022-07-05T09:39:36;98558.00;;;29.23;52.32
6413;BME280;3239;48.714;9.472;2022-07-05T09:42:19;98547.84;;;30.05;47.21
6413;BME280;3239;48.714;9.472;2022-07-05T09:47:20;98559.06;;;30.40;46.35
6413;BME280;3239;48.714;9.472;2022-07-05T09:49:51;98558.72;;;29.76;43.03
6413;BME280;3239;48.714;9.472;2022-07-05T09:52:38;98562.03;;;29.18;46.58
6413;BME280;3239;48.714;9.472;2022-07-05T09:55:15;98563.38;;;29.87;44.55
6413;BME280;3239;48.714;9.472;2022-07-05T09:57:46;98572.91;;;30.91;41.44
6413;BME280;3239;48.714;9.472;2022-07-05T10:00:18;98559.78;;;31.21;39.73
6413;BME280;3239;48.714;9.472;2022-07-05T10:02:52;98561.16;;;31.41;38.49
6413;BME280;3239;48.714;9.472;2022-07-05T10:05:24;98566.88;;;31.65;36.63
6413;BME280;3239;48.714;9.472;2022-07-05T10:10:28;98560.50;;;33.41;34.94
6413;BME280;3239;48.714;9.472;2022-07-05T10:13:03;98560.22;;;33.29;33.22
6413;BME280;3239;48.714;9.472;2022-07-05T10:15:35;98564.13;;;33.16;35.11
6413;BME280;3239;48.714;9.472;2022-07-05T10:23:15;98557.41;;;33.90;34.94
6413;BME280;3239;48.714;9.472;2022-07-05T10:25:48;98552.19;;;34.12;31.24
6413;BME280;3239;48.714;9.472;2022-07-05T10:28:15;98551.53;;;34.49;30.93
6413;BME280;3239;48.714;9.472;2022-07-05T10:30:47;98557.53;;;34.63;31.51
6413;BME280;3239;48.714;9.472;2022-07-05T10:33:18;98541.03;;;33.59;31.98
6413;BME280;3239;48.714;9.472;2022-07-05T10:35:50;98545.00;;;34.42;31.83
6413;BME280;3239;48.714;9.472;2022-07-05T10:38:17;98547.69;;;33.40;32.74
6413;BME280;3239;48.714;9.472;2022-07-05T10:40:49;98549.66;;;33.63;33.97
6413;BME280;3239;48.714;9.472;2022-07-05T10:43:16;98552.69;;;33.14;34.33
6413;BME280;3239;48.714;9.472;2022-07-05T10:45:50;98547.06;;;33.43;34.05
6413;BME280;3239;48.714;9.472;2022-07-05T10:48:27;98543.06;;;31.29;33.35
6413;BME280;3239;48.714;9.472;2022-07-05T10:58:44;98529.66;;;34.22;30.83
6413;BME280;3239;48.714;9.472;2022-07-05T11:06:46;98535.88;;;32.18;34.13
6413;BME280;3239;48.714;9.472;2022-07-05T11:14:30;98538.22;;;31.55;36.27
6413;BME280;3239;48.714;9.472;2022-07-05T11:19:58;98539.94;;;30.02;38.16
6413;BME280;3239;48.714;9.472;2022-07-05T11:22:21;98532.59;;;30.12;38.17
6413;BME280;3239;48.714;9.472;2022-07-05T11:24:47;98543.75;;;29.54;40.07
6413;BME280;3239;48.714;9.472;2022-07-05T11:27:13;98548.09;;;29.74;39.68
6413;BME280;3239;48.714;9.472;2022-07-05T11:29:55;98539.94;;;29.65;40.86
6413;BME280;3239;48.714;9.472;2022-07-05T11:35:18;98539.84;;;28.77;41.68
6413;BME280;3239;48.714;9.472;2022-07-05T11:38:03;98532.00;;;28.58;38.35
6413;BME280;3239;48.714;9.472;2022-07-05T11:40:31;98539.75;;;28.42;37.86
6413;BME280;3239;48.714;9.472;2022-07-05T11:42:58;98531.81;;;28.87;38.13
6413;BME280;3239;48.714;9.472;2022-07-05T11:45:24;98530.50;;;28.73;35.67
6413;BME280;3239;48.714;9.472;2022-07-05T11:47:54;98534.78;;;28.74;38.48
6413;BME280;3239;48.714;9.472;2022-07-05T11:50:30;98528.09;;;29.16;38.33
6413;BME280;3239;48.714;9.472;2022-07-05T11:52:57;98536.41;;;29.29;38.26
6413;BME280;3239;48.714;9.472;2022-07-05T11:55:26;98525.25;;;28.65;37.03
6413;BME280;3239;48.714;9.472;2022-07-05T11:57:54;98524.69;;;28.69;38.72
6413;BME280;3239;48.714;9.472;2022-07-05T12:00:31;98509.00;;;28.48;36.50
6413;BME280;3239;48.714;9.472;2022-07-05T12:02:57;98515.09;;;28.58;36.61
6413;BME280;3239;48.714;9.472;2022-07-05T12:05:31;98519.13;;;28.71;38.83
6413;BME280;3239;48.714;9.472;2022-07-05T12:07:58;98505.75;;;28.23;36.04
6413;BME280;3239;48.714;9.472;2022-07-05T12:10:24;98519.69;;;28.67;40.04
6413;BME280;3239;48.714;9.472;2022-07-05T12:13:09;98516.94;;;29.02;40.43
6413;BME280;3239;48.714;9.472;2022-07-05T12:15:36;98514.69;;;28.66;36.63
6413;BME280;3239;48.714;9.472;2022-07-05T12:18:05;98514.22;;;28.71;36.58
6413;BME280;3239;48.714;9.472;2022-07-05T12:20:33;98507.59;;;28.98;36.14
6413;BME280;3239;48.714;9.472;2022-07-05T12:23:00;98505.06;;;28.88;36.79
6413;BME280;3239;48.714;9.472;2022-07-05T12:25:28;98504.09;;;28.18;33.85
6413;BME280;3239;48.714;9.472;2022-07-05T12:27:57;98498.75;;;28.39;34.29
6413;BME280;3239;48.714;9.472;2022-07-05T12:30:24;98507.00;;;28.84;36.71
6413;BME280;3239;48.714;9.472;2022-07-05T12:33:06;98491.81;;;28.75;36.39
6413;BME280;3239;48.714;9.472;2022-07-05T12:35:40;98504.34;;;28.88;34.71
6413;BME280;3239;48.714;9.472;2022-07-05T12:38:15;98501.53;;;29.05;36.17
6413;BME280;3239;48.714;9.472;2022-07-05T12:40:49;98511.31;;;29.20;37.99
6413;BME280;3239;48.714;9.472;2022-07-05T12:43:22;98511.16;;;29.51;37.17
6413;BME280;3239;48.714;9.472;2022-07-05T12:46:04;98504.06;;;28.64;34.40
6413;BME280;3239;48.714;9.472;2022-07-05T12:48:38;98491.34;;;28.48;33.39
6413;BME280;3239;48.714;9.472;2022-07-05T12:51:07;98499.53;;;28.26;34.62
6413;BME280;3239;48.714;9.472;2022-07-05T12:53:34;98488.03;;;28.69;36.55
6413;BME280;3239;48.714;9.472;2022-07-05T12:56:23;98485.44;;;28.75;38.07
6413;BME280;3239;48.714;9.472;2022-07-05T12:59:09;98492.75;;;28.97;36.22
6413;BME280;3239;48.714;9.472;2022-07-05T13:01:43;98490.94;;;28.88;36.43
6413;BME280;3239;48.714;9.472;2022-07-05T13:04:17;98491.19;;;28.44;35.28
6413;BME280;3239;48.714;9.472;2022-07-05T13:09:14;98487.78;;;29.13;38.79
6413;BME280;3239;48.714;9.472;2022-07-05T13:11:42;98485.56;;;28.77;35.24
6413;BME280;3239;48.714;9.472;2022-07-05T13:14:08;98493.00;;;29.21;36.48
6413;BME280;3239;48.714;9.472;2022-07-05T13:16:34;98494.56;;;28.25;37.17
6413;BME280;3239;48.714;9.472;2022-07-05T13:19:11;98489.84;;;28.95;38.31
6413;BME280;3239;48.714;9.472;2022-07-05T13:21:38;98492.19;;;29.36;37.77
6413;BME280;3239;48.714;9.472;2022-07-05T13:24:05;98491.63;;;29.57;37.25
6413;BME280;3239;48.714;9.472;2022-07-05T13:26:31;98491.56;;;29.20;36.32
6413;BME280;3239;48.714;9.472;2022-07-05T13:28:57;98494.78;;;29.30;36.47
6413;BME280;3239;48.714;9.472;2022-07-05T13:31:23;98484.03;;;29.61;36.07
6413;BME280;3239;48.714;9.472;2022-07-05T13:33:54;98481.03;;;29.57;35.53
6413;BME280;3239;48.714;9.472;2022-07-05T13:36:21;98491.03;;;29.78;36.82
6413;BME280;3239;48.714;9.472;2022-07-05T13:38:46;98480.34;;;29.57;34.91
6413;BME280;3239;48.714;9.472;2022-07-05T13:41:12;98480.75;;;29.32;37.07
6413;BME280;3239;48.714;9.472;2022-07-05T13:43:38;98489.50;;;29.40;36.13
6413;BME280;3239;48.714;9.472;2022-07-05T13:46:05;98489.34;;;29.53;35.20
6413;BME280;3239;48.714;9.472;2022-07-05T13:48:31;98485.75;;;29.33;35.41
6413;BME280;3239;48.714;9.472;2022-07-05T13:50:58;98485.75;;;28.98;33.37
6413;BME280;3239;48.714;9.472;2022-07-05T13:53:24;98482.44;;;29.56;34.22
6413;BME280;3239;48.714;9.472;2022-07-05T13:55:50;98477.75;;;28.60;33.59
6413;BME280;3239;48.714;9.472;2022-07-05T13:58:16;98481.22;;;28.10;35.17